Time;durP1;ratioP1;P1;durP2;ratioP2;P2;SDS_P1;SDS_P2;PMS_P1;PMS_P2;Temp;Humidity;BMP_temperature;BMP_pressure;BME280_temperature;BME280_humidity;BME280_pressure;Samples;Min_cycle;Max_cycle;Signal;HPM_P1;HPM_P2
2022/11/13 00:01:43;;;;;;;28.88;21.92;;;;;;;;;;5015658;28;20045;-77
2022/11/13 00:04:09;;;;;;;29.38;20.17;;;;;;;;;;4997864;28;20042;-77
2022/11/13 00:06:35;;;;;;;32.42;21.27;;;;;;;;;;5000757;28;20145;-77
2022/11/13 00:09:01;;;;;;;28.85;20.02;;;;;;;;;;5004649;28;20062;-77
2022/11/13 00:11:28;;;;;;;30.63;20.38;;;;;;;;;;4996229;28;20086;-78
2022/11/13 00:13:54;;;;;;;31.02;20.90;;;;;;;;;;5004898;28;20049;-78
2022/11/13 00:16:21;;;;;;;32.03;19.63;;;;;;;;;;4978633;28;20077;-78
2022/11/13 00:18:47;;;;;;;30.75;20.08;;;;;;;;;;4998026;28;20037;-78
2022/11/13 00:21:14;;;;;;;28.90;19.50;;;;;;;;;;5015222;28;20050;-79
2022/11/13 00:23:40;;;;;;;28.45;19.80;;;;;;;;;;5015658;28;20037;-78
2022/11/13 00:26:11;;;;;;;27.92;19.40;;;;;;;;;;4997555;28;20499;-78
2022/11/13 00:28:38;;;;;;;28.70;20.50;;;;;;;;;;5006028;28;20077;-78
2022/11/13 00:31:05;;;;;;;26.48;20.42;;;;;;;;;;4999752;28;20085;-78
2022/11/13 00:33:35;;;;;;;29.10;20.45;;;;;;;;;;4995333;28;20046;-78
2022/11/13 00:36:02;;;;;;;26.00;19.38;;;;;;;;;;5010579;28;20458;-78
2022/11/13 00:38:28;;;;;;;29.08;19.88;;;;;;;;;;5014285;28;20412;-77
2022/11/13 00:40:54;;;;;;;29.48;20.15;;;;;;;;;;4981085;28;20046;-79
2022/11/13 00:43:20;;;;;;;27.95;19.35;;;;;;;;;;5015199;28;20046;-78
2022/11/13 00:45:46;;;;;;;27.80;19.00;;;;;;;;;;5014707;28;20043;-78
2022/11/13 00:48:15;;;;;;;29.13;20.35;;;;;;;;;;5013374;28;20048;-78
2022/11/13 00:50:41;;;;;;;27.98;20.13;;;;;;;;;;4994558;28;20058;-78
2022/11/13 00:53:07;;;;;;;28.48;19.67;;;;;;;;;;5012181;28;20453;-78
2022/11/13 00:55:33;;;;;;;27.35;19.20;;;;;;;;;;5014168;28;20597;-78
2022/11/13 00:57:59;;;;;;;26.00;18.80;;;;;;;;;;5014405;28;20056;-78
2022/11/13 01:00:25;;;;;;;25.30;18.35;;;;;;;;;;5014126;28;20050;-77
2022/11/13 01:02:51;;;;;;;22.30;17.67;;;;;;;;;;5013124;28;20132;-77
2022/11/13 01:05:17;;;;;;;21.85;17.02;;;;;;;;;;5013673;28;20045;-77
2022/11/13 01:07:43;;;;;;;21.88;16.48;;;;;;;;;;4996420;28;20042;-77
2022/11/13 01:10:10;;;;;;;22.90;17.38;;;;;;;;;;5011637;28;20045;-77
2022/11/13 01:12:36;;;;;;;24.48;17.00;;;;;;;;;;5013730;28;20350;-77
2022/11/13 01:15:02;;;;;;;27.80;18.55;;;;;;;;;;5005327;28;20042;-78
2022/11/13 01:17:28;;;;;;;24.17;17.33;;;;;;;;;;4990094;28;20050;-78
2022/11/13 01:19:54;;;;;;;24.02;18.17;;;;;;;;;;5007438;28;20124;-78
2022/11/13 01:22:20;;;;;;;24.13;17.95;;;;;;;;;;5000049;28;20129;-77
2022/11/13 01:24:49;;;;;;;23.02;16.90;;;;;;;;;;5012341;28;20077;-77
2022/11/13 01:27:15;;;;;;;23.20;17.00;;;;;;;;;;5012195;28;20053;-77
2022/11/13 01:29:41;;;;;;;28.17;18.52;;;;;;;;;;4999921;28;20508;-77
2022/11/13 01:32:08;;;;;;;26.30;17.80;;;;;;;;;;5009765;28;20512;-78
2022/11/13 01:34:34;;;;;;;25.58;17.95;;;;;;;;;;4971735;28;20085;-77
2022/11/13 01:37:00;;;;;;;28.58;17.83;;;;;;;;;;4990853;28;20053;-77
2022/11/13 01:39:26;;;;;;;26.35;18.55;;;;;;;;;;4995624;28;20046;-77
2022/11/13 01:41:52;;;;;;;24.77;18.30;;;;;;;;;;4995640;28;20551;-78
2022/11/13 01:44:19;;;;;;;28.27;18.70;;;;;;;;;;5012716;28;20045;-77
2022/11/13 01:46:47;;;;;;;27.35;19.65;;;;;;;;;;5012777;28;20034;-77
2022/11/13 01:49:25;;;;;;;27.63;19.85;;;;;;;;;;5016196;28;20128;-78
2022/11/13 01:51:59;;;;;;;26.45;18.98;;;;;;;;;;5033226;28;20160;-77
2022/11/13 01:54:27;;;;;;;24.48;18.58;;;;;;;;;;5033307;28;20472;-77
2022/11/13 01:56:54;;;;;;;25.63;18.75;;;;;;;;;;4999418;28;20050;-77
2022/11/13 01:59:22;;;;;;;26.50;18.75;;;;;;;;;;5018887;28;20050;-77
2022/11/13 02:01:48;;;;;;;26.75;18.23;;;;;;;;;;5017107;28;20116;-77
2022/11/13 02:04:14;;;;;;;25.83;18.10;;;;;;;;;;5012209;28;20480;-77
2022/11/13 02:06:46;;;;;;;20.65;14.38;;;;;;;;;;5013298;28;20054;-77
2022/11/13 02:09:12;;;;;;;16.88;13.73;;;;;;;;;;5013198;28;20052;-77
2022/11/13 02:11:39;;;;;;;16.13;13.68;;;;;;;;;;5013275;28;20038;-77
2022/11/13 02:14:05;;;;;;;17.08;13.68;;;;;;;;;;5008747;28;20383;-77
2022/11/13 02:16:32;;;;;;;17.67;14.00;;;;;;;;;;5034928;28;20092;-77
2022/11/13 02:18:58;;;;;;;20.85;14.90;;;;;;;;;;5022021;28;20056;-77
2022/11/13 02:21:30;;;;;;;23.25;16.92;;;;;;;;;;5016720;28;20488;-77
2022/11/13 02:24:00;;;;;;;21.40;16.15;;;;;;;;;;5016723;28;20129;-77
2022/11/13 02:26:27;;;;;;;22.30;16.58;;;;;;;;;;5017014;28;20107;-77
2022/11/13 02:28:53;;;;;;;23.33;17.08;;;;;;;;;;5026055;28;20042;-77
2022/11/13 02:31:19;;;;;;;23.35;16.77;;;;;;;;;;5020070;28;20042;-77
2022/11/13 02:33:45;;;;;;;23.38;17.02;;;;;;;;;;5016237;28;20042;-77
2022/11/13 02:36:11;;;;;;;25.75;17.75;;;;;;;;;;5016964;28;20352;-77
2022/11/13 02:38:38;;;;;;;29.80;19.88;;;;;;;;;;5018463;28;20034;-77
2022/11/13 02:41:04;;;;;;;28.45;19.95;;;;;;;;;;5016255;28;20049;-77
2022/11/13 02:43:30;;;;;;;27.40;20.02;;;;;;;;;;5016666;28;20400;-77
2022/11/13 02:45:56;;;;;;;29.05;19.70;;;;;;;;;;5020245;28;20488;-77
2022/11/13 02:48:22;;;;;;;31.77;21.50;;;;;;;;;;5021154;28;20460;-77
2022/11/13 02:50:48;;;;;;;27.00;20.60;;;;;;;;;;5019097;28;20048;-77
2022/11/13 02:53:14;;;;;;;28.00;21.33;;;;;;;;;;5016977;28;20065;-77
2022/11/13 02:55:40;;;;;;;31.65;21.92;;;;;;;;;;5016051;28;20046;-77
2022/11/13 02:58:06;;;;;;;26.80;18.88;;;;;;;;;;5021787;28;20072;-77
2022/11/13 03:00:34;;;;;;;19.88;15.93;;;;;;;;;;5013315;28;20053;-78
2022/11/13 03:03:01;;;;;;;22.38;17.30;;;;;;;;;;5035966;28;20486;-78
2022/11/13 03:05:27;;;;;;;20.17;15.63;;;;;;;;;;5034731;28;20058;-78
2022/11/13 03:07:53;;;;;;;25.42;17.90;;;;;;;;;;5036060;28;20045;-78
2022/11/13 03:10:19;;;;;;;30.70;20.13;;;;;;;;;;5018610;28;20365;-78
2022/11/13 03:12:45;;;;;;;31.83;21.25;;;;;;;;;;4999750;28;20041;-78
2022/11/13 03:15:11;;;;;;;28.13;20.55;;;;;;;;;;5013651;28;20045;-78
2022/11/13 03:17:37;;;;;;;28.58;21.30;;;;;;;;;;5017988;28;20366;-78
2022/11/13 03:20:04;;;;;;;32.08;21.70;;;;;;;;;;5017632;28;20499;-78
2022/11/13 03:22:30;;;;;;;30.83;21.20;;;;;;;;;;5035946;28;20060;-78
2022/11/13 03:24:56;;;;;;;30.80;21.05;;;;;;;;;;5036018;28;20129;-78
2022/11/13 03:27:22;;;;;;;28.15;21.02;;;;;;;;;;5034064;28;20049;-78
2022/11/13 03:29:48;;;;;;;29.52;21.50;;;;;;;;;;5035130;28;20372;-78
2022/11/13 03:32:15;;;;;;;28.75;20.90;;;;;;;;;;5017651;28;20045;-78
2022/11/13 03:34:41;;;;;;;36.38;21.90;;;;;;;;;;5030500;28;20545;-77
2022/11/13 03:37:07;;;;;;;30.38;21.88;;;;;;;;;;5017759;28;20081;-77
2022/11/13 03:39:33;;;;;;;29.45;20.42;;;;;;;;;;5018008;28;20415;-77
2022/11/13 03:41:59;;;;;;;27.60;20.48;;;;;;;;;;5030833;28;20539;-77
2022/11/13 03:44:25;;;;;;;31.52;21.10;;;;;;;;;;5015443;28;20447;-77
2022/11/13 03:46:51;;;;;;;29.17;21.33;;;;;;;;;;5015161;28;20369;-77
2022/11/13 03:49:17;;;;;;;30.17;21.33;;;;;;;;;;5015014;28;20112;-77
2022/11/13 03:51:43;;;;;;;31.20;20.00;;;;;;;;;;5019128;28;20117;-78
2022/11/13 03:54:09;;;;;;;27.55;21.60;;;;;;;;;;5015529;28;20041;-78
2022/11/13 03:56:35;;;;;;;31.63;21.20;;;;;;;;;;5017639;28;20056;-78
2022/11/13 03:59:01;;;;;;;29.00;20.42;;;;;;;;;;5017307;28;20072;-77
2022/11/13 04:01:27;;;;;;;26.90;20.67;;;;;;;;;;5017002;28;20102;-77
2022/11/13 04:03:53;;;;;;;26.20;19.67;;;;;;;;;;5034802;28;20041;-77
2022/11/13 04:06:20;;;;;;;26.73;19.45;;;;;;;;;;5034462;28;20554;-77
2022/11/13 04:08:46;;;;;;;24.75;19.88;;;;;;;;;;5015508;28;20438;-77
2022/11/13 04:11:13;;;;;;;27.27;19.52;;;;;;;;;;5014649;28;20046;-77
2022/11/13 04:13:39;;;;;;;27.55;19.60;;;;;;;;;;5028451;28;20069;-77
2022/11/13 04:16:05;;;;;;;25.90;19.30;;;;;;;;;;5034730;28;20132;-77
2022/11/13 04:18:31;;;;;;;26.42;18.65;;;;;;;;;;5034533;28;20042;-77
2022/11/13 04:21:01;;;;;;;28.27;20.60;;;;;;;;;;5020939;28;20054;-77
2022/11/13 04:23:28;;;;;;;26.73;20.63;;;;;;;;;;4996997;28;20046;-77
2022/11/13 04:25:54;;;;;;;25.95;19.98;;;;;;;;;;4997389;28;20077;-77
2022/11/13 04:28:20;;;;;;;27.90;19.73;;;;;;;;;;5026731;28;20120;-77
2022/11/13 04:30:46;;;;;;;25.65;19.38;;;;;;;;;;5034424;28;20060;-77
2022/11/13 04:33:12;;;;;;;26.75;19.45;;;;;;;;;;5017549;28;20159;-77
2022/11/13 04:35:40;;;;;;;26.77;19.52;;;;;;;;;;5014762;28;20046;-77
2022/11/13 04:38:06;;;;;;;27.63;19.65;;;;;;;;;;5013824;28;20071;-77
2022/11/13 04:40:33;;;;;;;26.15;19.60;;;;;;;;;;5014622;28;20080;-77
2022/11/13 04:42:59;;;;;;;26.08;19.25;;;;;;;;;;5015231;28;20081;-77
2022/11/13 04:45:28;;;;;;;25.33;19.95;;;;;;;;;;5014542;28;20099;-77
2022/11/13 04:47:54;;;;;;;26.33;19.42;;;;;;;;;;5015206;28;20061;-77
2022/11/13 04:50:20;;;;;;;28.20;20.67;;;;;;;;;;5015136;28;20072;-77
2022/11/13 04:52:54;;;;;;;24.83;19.08;;;;;;;;;;5014806;28;20077;-77
2022/11/13 04:55:20;;;;;;;25.45;18.75;;;;;;;;;;5014797;28;20098;-77
2022/11/13 04:57:46;;;;;;;28.42;18.85;;;;;;;;;;5014970;28;20492;-78
2022/11/13 05:00:12;;;;;;;26.27;18.88;;;;;;;;;;5014400;28;20484;-78
2022/11/13 05:02:38;;;;;;;27.33;18.80;;;;;;;;;;5000156;28;20081;-78
2022/11/13 05:05:04;;;;;;;25.40;19.10;;;;;;;;;;5009339;28;20064;-78
2022/11/13 05:07:30;;;;;;;24.90;19.20;;;;;;;;;;5008404;28;20057;-78
2022/11/13 05:09:56;;;;;;;23.10;17.48;;;;;;;;;;4998887;28;20471;-78
2022/11/13 05:12:22;;;;;;;25.75;18.83;;;;;;;;;;5033905;28;20038;-78
2022/11/13 05:14:49;;;;;;;24.95;17.92;;;;;;;;;;4999698;28;20136;-78
2022/11/13 05:17:15;;;;;;;21.27;17.27;;;;;;;;;;5016543;28;20084;-78
2022/11/13 05:19:41;;;;;;;22.38;17.00;;;;;;;;;;5015814;28;20384;-78
2022/11/13 05:22:07;;;;;;;21.33;16.55;;;;;;;;;;5033559;28;20052;-78
2022/11/13 05:24:33;;;;;;;20.95;16.25;;;;;;;;;;5012897;28;20050;-78
2022/11/13 05:26:59;;;;;;;23.25;17.48;;;;;;;;;;4981049;28;20046;-78
2022/11/13 05:29:25;;;;;;;22.98;17.80;;;;;;;;;;4980449;28;20048;-78
2022/11/13 05:31:51;;;;;;;25.77;18.83;;;;;;;;;;4996336;28;20392;-78
2022/11/13 05:34:17;;;;;;;24.58;17.55;;;;;;;;;;4995632;28;20484;-78
2022/11/13 05:36:43;;;;;;;21.27;17.33;;;;;;;;;;5013718;28;20050;-77
2022/11/13 05:39:09;;;;;;;23.02;17.17;;;;;;;;;;4979845;28;20057;-78
2022/11/13 05:41:35;;;;;;;21.90;16.60;;;;;;;;;;5013986;28;20187;-78
2022/11/13 05:44:01;;;;;;;20.40;16.42;;;;;;;;;;4995589;28;20053;-78
2022/11/13 05:46:28;;;;;;;21.08;16.58;;;;;;;;;;4979643;28;20042;-78
2022/11/13 05:48:55;;;;;;;20.55;15.50;;;;;;;;;;4996974;28;20058;-78
2022/11/13 05:51:23;;;;;;;21.92;16.33;;;;;;;;;;5018765;28;20127;-78
2022/11/13 05:53:49;;;;;;;19.83;15.73;;;;;;;;;;5010924;28;20392;-77
2022/11/13 05:56:23;;;;;;;22.42;15.38;;;;;;;;;;5038338;28;20037;-77
2022/11/13 05:58:49;;;;;;;21.08;16.70;;;;;;;;;;5042646;28;20049;-77
2022/11/13 06:01:17;;;;;;;22.13;15.57;;;;;;;;;;5041702;28;20041;-77
2022/11/13 06:03:44;;;;;;;20.83;14.93;;;;;;;;;;5038077;28;20056;-77
2022/11/13 06:06:11;;;;;;;20.05;15.68;;;;;;;;;;5036644;28;20053;-77
2022/11/13 06:08:38;;;;;;;22.05;16.00;;;;;;;;;;5032358;28;20408;-77
2022/11/13 06:11:05;;;;;;;22.65;17.20;;;;;;;;;;5033298;28;20461;-77
2022/11/13 06:13:32;;;;;;;26.52;17.88;;;;;;;;;;4999625;28;20129;-77
2022/11/13 06:16:02;;;;;;;23.73;17.90;;;;;;;;;;5016593;28;20511;-77
2022/11/13 06:18:28;;;;;;;30.23;18.98;;;;;;;;;;5025728;28;20120;-77
2022/11/13 06:20:54;;;;;;;24.02;18.77;;;;;;;;;;5036769;28;20056;-78
2022/11/13 06:23:21;;;;;;;23.65;17.33;;;;;;;;;;4999389;28;20095;-78
2022/11/13 06:25:47;;;;;;;24.95;17.77;;;;;;;;;;4999250;28;20184;-77
2022/11/13 06:28:13;;;;;;;26.55;18.45;;;;;;;;;;4999394;28;20089;-78
2022/11/13 06:30:39;;;;;;;22.58;17.65;;;;;;;;;;5016491;28;20046;-78
2022/11/13 06:33:05;;;;;;;24.90;18.42;;;;;;;;;;4999258;28;20049;-78
2022/11/13 06:35:31;;;;;;;24.67;17.42;;;;;;;;;;5026954;28;20076;-78
2022/11/13 06:37:57;;;;;;;25.95;18.27;;;;;;;;;;5012863;28;20081;-78
2022/11/13 06:40:23;;;;;;;23.13;17.75;;;;;;;;;;4999299;28;20070;-78
2022/11/13 06:42:49;;;;;;;23.30;18.40;;;;;;;;;;4999555;28;20054;-78
2022/11/13 06:45:15;;;;;;;22.77;17.30;;;;;;;;;;4998727;28;20042;-78
2022/11/13 06:47:41;;;;;;;23.38;18.27;;;;;;;;;;5002057;28;20068;-78
2022/11/13 06:50:10;;;;;;;25.38;18.10;;;;;;;;;;5004322;28;20067;-83
2022/11/13 06:52:36;;;;;;;24.27;17.88;;;;;;;;;;5018959;28;20052;-78
2022/11/13 06:55:02;;;;;;;23.60;18.20;;;;;;;;;;5006342;28;20097;-80
2022/11/13 06:57:28;;;;;;;26.33;17.75;;;;;;;;;;5012919;28;20084;-78
2022/11/13 06:59:54;;;;;;;22.95;17.63;;;;;;;;;;5018835;28;20128;-79
2022/11/13 07:02:20;;;;;;;22.63;17.67;;;;;;;;;;5017427;28;20084;-79
2022/11/13 07:04:46;;;;;;;24.40;18.05;;;;;;;;;;5018209;28;20416;-79
2022/11/13 07:07:12;;;;;;;22.27;17.13;;;;;;;;;;5018954;28;20053;-79
2022/11/13 07:09:38;;;;;;;23.77;17.80;;;;;;;;;;5035377;28;20056;-79
2022/11/13 07:12:04;;;;;;;25.17;18.95;;;;;;;;;;5036519;28;20094;-79
2022/11/13 07:14:30;;;;;;;25.85;17.58;;;;;;;;;;5018759;28;20056;-79
2022/11/13 07:16:56;;;;;;;22.10;16.15;;;;;;;;;;5019020;28;20038;-79
2022/11/13 07:19:22;;;;;;;24.40;17.45;;;;;;;;;;5000426;28;20151;-78
2022/11/13 07:21:51;;;;;;;21.90;16.60;;;;;;;;;;5018292;28;20050;-78
2022/11/13 07:24:18;;;;;;;21.80;16.13;;;;;;;;;;5018784;28;20103;-78
2022/11/13 07:26:44;;;;;;;21.25;16.55;;;;;;;;;;5018054;28;20038;-79
2022/11/13 07:29:11;;;;;;;20.75;15.43;;;;;;;;;;5018650;28;20042;-79
2022/11/13 07:31:37;;;;;;;26.13;16.85;;;;;;;;;;5034181;28;20041;-79
2022/11/13 07:34:03;;;;;;;21.90;16.77;;;;;;;;;;5036175;28;20065;-79
2022/11/13 07:36:29;;;;;;;21.15;16.17;;;;;;;;;;5017818;28;20545;-79
2022/11/13 07:38:57;;;;;;;21.30;16.48;;;;;;;;;;5018137;28;20456;-79
2022/11/13 07:41:23;;;;;;;21.40;16.02;;;;;;;;;;5036080;28;20414;-79
2022/11/13 07:43:49;;;;;;;21.83;15.77;;;;;;;;;;5018522;28;20045;-79
2022/11/13 07:46:15;;;;;;;20.90;16.35;;;;;;;;;;5018487;28;20483;-79
2022/11/13 07:48:41;;;;;;;23.60;16.30;;;;;;;;;;5037486;28;20379;-79
2022/11/13 07:51:08;;;;;;;21.67;16.05;;;;;;;;;;5033966;28;20159;-79
2022/11/13 07:53:34;;;;;;;21.40;15.70;;;;;;;;;;5005149;28;20044;-79
2022/11/13 07:56:01;;;;;;;19.70;16.13;;;;;;;;;;5036302;28;20091;-79
2022/11/13 07:58:27;;;;;;;20.42;15.85;;;;;;;;;;5036284;28;20050;-80
2022/11/13 08:00:56;;;;;;;20.33;15.43;;;;;;;;;;4999414;28;20066;-79
2022/11/13 08:03:22;;;;;;;23.45;15.60;;;;;;;;;;4998672;28;20049;-78
2022/11/13 08:05:48;;;;;;;22.50;15.80;;;;;;;;;;5009213;28;20053;-79
2022/11/13 08:08:15;;;;;;;20.42;14.98;;;;;;;;;;5017371;28;20050;-79
2022/11/13 08:10:44;;;;;;;21.55;15.73;;;;;;;;;;5030128;28;20046;-79
2022/11/13 08:13:10;;;;;;;21.80;15.50;;;;;;;;;;5015550;28;20053;-79
2022/11/13 08:15:39;;;;;;;18.70;14.40;;;;;;;;;;5017883;28;20451;-79
2022/11/13 08:18:06;;;;;;;21.55;16.63;;;;;;;;;;4998723;28;20046;-79
2022/11/13 08:20:34;;;;;;;20.65;15.63;;;;;;;;;;5015988;28;20042;-79
2022/11/13 08:23:01;;;;;;;20.67;15.27;;;;;;;;;;5000341;28;20046;-79
2022/11/13 08:25:28;;;;;;;21.27;15.70;;;;;;;;;;5035277;28;20037;-79
2022/11/13 08:27:55;;;;;;;18.75;14.75;;;;;;;;;;5031253;28;20041;-79
2022/11/13 08:30:30;;;;;;;18.48;15.02;;;;;;;;;;5018117;28;20431;-79
2022/11/13 08:32:56;;;;;;;18.17;14.75;;;;;;;;;;5001748;28;20046;-79
2022/11/13 08:35:23;;;;;;;17.17;14.07;;;;;;;;;;4998769;28;20463;-79
2022/11/13 08:37:49;;;;;;;20.30;15.05;;;;;;;;;;5018254;28;20550;-79
2022/11/13 08:40:15;;;;;;;19.23;14.30;;;;;;;;;;5007716;28;20151;-79
2022/11/13 08:42:41;;;;;;;17.63;13.75;;;;;;;;;;4997325;28;20046;-78
2022/11/13 08:45:10;;;;;;;16.08;13.45;;;;;;;;;;4981233;28;20552;-78
2022/11/13 08:47:36;;;;;;;16.90;13.02;;;;;;;;;;4981471;28;20049;-78
2022/11/13 08:50:03;;;;;;;19.00;13.50;;;;;;;;;;5013177;28;20051;-78
2022/11/13 08:52:29;;;;;;;17.08;13.20;;;;;;;;;;5014556;28;20081;-78
2022/11/13 08:54:55;;;;;;;17.05;13.63;;;;;;;;;;5022625;28;20068;-78
2022/11/13 08:57:21;;;;;;;17.33;13.20;;;;;;;;;;5017033;28;20072;-79
2022/11/13 08:59:47;;;;;;;16.38;12.77;;;;;;;;;;5034588;28;20045;-79
2022/11/13 09:02:14;;;;;;;18.85;13.52;;;;;;;;;;5018310;28;20151;-79
2022/11/13 09:04:41;;;;;;;18.33;12.82;;;;;;;;;;5027655;28;20053;-79
2022/11/13 09:07:07;;;;;;;15.27;12.90;;;;;;;;;;5034820;28;20140;-79
2022/11/13 09:09:33;;;;;;;17.15;12.98;;;;;;;;;;5005706;28;20053;-79
2022/11/13 09:11:59;;;;;;;17.40;12.32;;;;;;;;;;5018702;28;20112;-79
2022/11/13 09:14:26;;;;;;;14.88;12.55;;;;;;;;;;5016771;28;20052;-79
2022/11/13 09:16:53;;;;;;;14.65;11.68;;;;;;;;;;5014215;28;20099;-79
2022/11/13 09:19:19;;;;;;;17.50;12.90;;;;;;;;;;5014035;28;20056;-79
2022/11/13 09:21:46;;;;;;;16.80;12.60;;;;;;;;;;5014568;28;20056;-79
2022/11/13 09:24:12;;;;;;;15.30;12.63;;;;;;;;;;5029779;28;20144;-78
2022/11/13 09:26:38;;;;;;;15.43;12.90;;;;;;;;;;5035921;28;20108;-79
2022/11/13 09:29:04;;;;;;;15.98;11.88;;;;;;;;;;5034401;28;20471;-79
2022/11/13 09:31:30;;;;;;;14.50;12.43;;;;;;;;;;5034376;28;20041;-78
2022/11/13 09:33:56;;;;;;;14.55;11.50;;;;;;;;;;5031869;28;20049;-78
2022/11/13 09:36:23;;;;;;;16.27;12.77;;;;;;;;;;5029661;28;20030;-80
2022/11/13 09:38:49;;;;;;;14.57;12.52;;;;;;;;;;5016541;28;20088;-79
2022/11/13 09:41:20;;;;;;;15.82;12.82;;;;;;;;;;5027896;28;20073;-79
2022/11/13 09:43:49;;;;;;;14.73;11.98;;;;;;;;;;5027368;28;20042;-79
2022/11/13 09:46:34;;;;;;;16.20;12.05;;;;;;;;;;5035084;28;20135;-79
2022/11/13 09:49:04;;;;;;;15.70;12.20;;;;;;;;;;5034167;28;20407;-79
2022/11/13 09:51:33;;;;;;;14.75;12.07;;;;;;;;;;5035653;28;20073;-79
2022/11/13 09:54:04;;;;;;;14.05;11.35;;;;;;;;;;5027164;28;20046;-79
2022/11/13 09:56:33;;;;;;;13.05;11.27;;;;;;;;;;5035033;28;20046;-79
2022/11/13 09:59:02;;;;;;;15.93;11.77;;;;;;;;;;5022812;28;20064;-79
2022/11/13 10:01:43;;;;;;;15.10;11.70;;;;;;;;;;4998217;28;20125;-79
2022/11/13 10:04:11;;;;;;;13.23;11.23;;;;;;;;;;4997615;28;20049;-79
2022/11/13 10:06:58;;;;;;;12.93;11.13;;;;;;;;;;4998646;28;20145;-79
2022/11/13 10:09:39;;;;;;;11.85;10.60;;;;;;;;;;5019380;28;20050;-79
2022/11/13 10:12:06;;;;;;;12.23;10.93;;;;;;;;;;4974143;28;20049;-79
2022/11/13 10:14:38;;;;;;;11.70;10.30;;;;;;;;;;5029161;28;20037;-79
2022/11/13 10:17:04;;;;;;;13.07;10.02;;;;;;;;;;5030793;28;20038;-80
2022/11/13 10:19:35;;;;;;;12.13;10.43;;;;;;;;;;5029190;28;20045;-79
2022/11/13 10:22:04;;;;;;;15.75;11.15;;;;;;;;;;5017048;28;20038;-79
2022/11/13 10:24:43;;;;;;;13.40;11.02;;;;;;;;;;5031995;28;20048;-79
2022/11/13 10:27:10;;;;;;;13.48;11.25;;;;;;;;;;5019622;28;20072;-79
2022/11/13 10:29:36;;;;;;;12.80;10.38;;;;;;;;;;5017646;28;20049;-79
2022/11/13 10:32:22;;;;;;;12.75;10.40;;;;;;;;;;5018989;28;20041;-79
2022/11/13 10:34:52;;;;;;;12.57;9.87;;;;;;;;;;5028543;28;20042;-79
2022/11/13 10:37:32;;;;;;;13.68;10.85;;;;;;;;;;5035930;28;20468;-79
2022/11/13 10:39:58;;;;;;;13.32;10.65;;;;;;;;;;5022423;28;20050;-79
2022/11/13 10:42:27;;;;;;;12.43;10.43;;;;;;;;;;5033076;28;20523;-79
2022/11/13 10:44:55;;;;;;;11.18;9.95;;;;;;;;;;4999881;28;20469;-79
2022/11/13 10:47:22;;;;;;;12.32;9.80;;;;;;;;;;5039261;28;20119;-79
2022/11/13 10:49:49;;;;;;;13.45;10.70;;;;;;;;;;5035555;28;20038;-79
2022/11/13 10:52:27;;;;;;;12.05;10.52;;;;;;;;;;5038512;28;20194;-79
2022/11/13 10:55:11;;;;;;;11.55;10.23;;;;;;;;;;5021447;28;20500;-79
2022/11/13 10:57:37;;;;;;;10.88;9.63;;;;;;;;;;5024955;28;20046;-78
2022/11/13 11:00:46;;;;;;;11.45;9.95;;;;;;;;;;5037991;28;20051;-80
2022/11/13 11:03:28;;;;;;;10.88;9.32;;;;;;;;;;4964517;28;20057;-81
2022/11/13 11:05:55;;;;;;;10.98;9.38;;;;;;;;;;4976590;28;20112;-79
2022/11/13 11:08:32;;;;;;;11.43;9.57;;;;;;;;;;4977274;28;20540;-79
2022/11/13 11:14:09;;;;;;;11.00;9.55;;;;;;;;;;4962427;28;20086;-79
2022/11/13 11:16:35;;;;;;;12.20;10.10;;;;;;;;;;4969159;28;20039;-79
2022/11/13 11:19:06;;;;;;;11.43;9.90;;;;;;;;;;4976274;28;20046;-79
2022/11/13 11:21:37;;;;;;;11.65;9.43;;;;;;;;;;4960742;28;20086;-79
2022/11/13 11:24:08;;;;;;;10.27;9.15;;;;;;;;;;4963574;28;20087;-79
2022/11/13 11:26:40;;;;;;;10.20;9.10;;;;;;;;;;4972479;28;20062;-79
2022/11/13 11:29:18;;;;;;;9.80;8.57;;;;;;;;;;4976738;28;20043;-79
2022/11/13 11:31:56;;;;;;;11.50;9.55;;;;;;;;;;4976222;28;20050;-80
2022/11/13 11:34:46;;;;;;;11.55;8.98;;;;;;;;;;4999293;28;20050;-79
2022/11/13 11:37:20;;;;;;;10.48;8.82;;;;;;;;;;5011375;28;20092;-79
2022/11/13 11:39:48;;;;;;;9.40;8.40;;;;;;;;;;5006833;28;20045;-79
2022/11/13 11:42:23;;;;;;;10.02;8.23;;;;;;;;;;5003381;28;20145;-79
2022/11/13 11:45:07;;;;;;;8.53;7.67;;;;;;;;;;5023544;28;20116;-81
2022/11/13 11:47:33;;;;;;;8.48;7.57;;;;;;;;;;5037352;28;20054;-79
2022/11/13 11:50:00;;;;;;;9.85;7.68;;;;;;;;;;5038096;28;20048;-83
2022/11/13 11:52:34;;;;;;;8.57;7.65;;;;;;;;;;5036127;28;20078;-79
2022/11/13 11:55:03;;;;;;;9.05;8.02;;;;;;;;;;5007820;28;20136;-79
2022/11/13 11:57:32;;;;;;;8.57;7.60;;;;;;;;;;5029424;28;20105;-79
2022/11/13 12:00:04;;;;;;;8.95;7.55;;;;;;;;;;5032743;28;20038;-79
2022/11/13 12:02:45;;;;;;;8.52;7.45;;;;;;;;;;5014222;28;20053;-79
2022/11/13 12:05:16;;;;;;;9.85;8.18;;;;;;;;;;5033448;28;20457;-78
2022/11/13 12:07:54;;;;;;;11.15;8.30;;;;;;;;;;5001617;28;20057;-79
2022/11/13 12:10:20;;;;;;;9.40;7.82;;;;;;;;;;5016082;28;20125;-79
2022/11/13 12:12:49;;;;;;;9.27;8.27;;;;;;;;;;5008094;28;20463;-79
2022/11/13 12:15:20;;;;;;;10.57;8.23;;;;;;;;;;5035869;28;20049;-79
2022/11/13 12:17:53;;;;;;;9.60;8.57;;;;;;;;;;5035910;28;20124;-79
2022/11/13 12:20:25;;;;;;;10.80;8.35;;;;;;;;;;5037317;28;20053;-79
2022/11/13 12:22:52;;;;;;;9.65;8.40;;;;;;;;;;5013770;28;20049;-79
2022/11/13 12:25:38;;;;;;;10.60;9.07;;;;;;;;;;5038658;28;20049;-79
2022/11/13 12:28:17;;;;;;;9.00;7.95;;;;;;;;;;5033676;28;20049;-79
2022/11/13 12:30:46;;;;;;;11.07;9.05;;;;;;;;;;5029758;28;20053;-79
2022/11/13 12:33:12;;;;;;;10.38;8.60;;;;;;;;;;5033419;28;20111;-80
2022/11/13 12:35:38;;;;;;;10.18;8.80;;;;;;;;;;5036942;28;20045;-80
2022/11/13 12:38:08;;;;;;;10.57;8.13;;;;;;;;;;5017699;28;20042;-79
2022/11/13 12:40:34;;;;;;;9.13;8.10;;;;;;;;;;5006386;28;20056;-80
2022/11/13 12:43:24;;;;;;;9.10;7.90;;;;;;;;;;5032822;28;20041;-79
2022/11/13 12:45:51;;;;;;;8.98;7.57;;;;;;;;;;5036448;28;20083;-79
2022/11/13 12:48:32;;;;;;;9.48;8.05;;;;;;;;;;5036989;28;20045;-79
2022/11/13 12:50:59;;;;;;;9.73;8.13;;;;;;;;;;5002382;28;20052;-79
2022/11/13 12:53:26;;;;;;;10.63;8.52;;;;;;;;;;5031143;28;20044;-79
2022/11/13 12:56:16;;;;;;;9.90;7.80;;;;;;;;;;5019032;28;20057;-79
2022/11/13 12:58:51;;;;;;;9.57;8.38;;;;;;;;;;5012009;28;20050;-79
2022/11/13 13:01:18;;;;;;;10.03;8.33;;;;;;;;;;5031317;28;20049;-79
2022/11/13 13:03:54;;;;;;;10.55;8.55;;;;;;;;;;5035853;28;20554;-79
2022/11/13 13:06:20;;;;;;;10.17;8.90;;;;;;;;;;5017741;28;20385;-80
2022/11/13 13:09:00;;;;;;;10.55;9.10;;;;;;;;;;5007425;28;20042;-83
2022/11/13 13:11:26;;;;;;;10.68;8.18;;;;;;;;;;4981624;28;20491;-78
2022/11/13 13:14:08;;;;;;;9.68;8.68;;;;;;;;;;4987856;28;20531;-78
2022/11/13 13:16:34;;;;;;;12.15;9.75;;;;;;;;;;5013770;28;20050;-79
2022/11/13 13:19:18;;;;;;;11.48;10.27;;;;;;;;;;4999409;28;20042;-79
2022/11/13 13:21:44;;;;;;;12.25;10.27;;;;;;;;;;4997744;28;20107;-79
2022/11/13 13:24:27;;;;;;;12.65;10.48;;;;;;;;;;5013912;28;20053;-79
2022/11/13 13:26:54;;;;;;;12.07;10.38;;;;;;;;;;5009505;28;20404;-78
2022/11/13 13:29:24;;;;;;;12.52;10.20;;;;;;;;;;5013007;28;20457;-79
2022/11/13 13:31:57;;;;;;;11.50;10.05;;;;;;;;;;5003995;28;20085;-78
2022/11/13 13:34:29;;;;;;;12.32;9.70;;;;;;;;;;5006179;28;20141;-79
2022/11/13 13:37:04;;;;;;;11.13;9.02;;;;;;;;;;4993599;28;20547;-78
2022/11/13 13:39:39;;;;;;;12.13;10.40;;;;;;;;;;5006262;28;20034;-78
2022/11/13 13:42:08;;;;;;;10.77;9.45;;;;;;;;;;4962949;28;20544;-80
2022/11/13 13:44:47;;;;;;;13.13;10.07;;;;;;;;;;5012711;28;20108;-79
2022/11/13 13:47:22;;;;;;;11.38;9.75;;;;;;;;;;5000814;28;20101;-79
2022/11/13 13:49:49;;;;;;;12.13;10.27;;;;;;;;;;5008373;28;20048;-79
2022/11/13 13:52:19;;;;;;;13.10;9.95;;;;;;;;;;5008032;28;20533;-79
2022/11/13 13:54:47;;;;;;;12.05;9.77;;;;;;;;;;5013595;28;20096;-79
2022/11/13 13:57:14;;;;;;;11.73;9.75;;;;;;;;;;5000053;28;20408;-79
2022/11/13 13:59:42;;;;;;;11.05;9.05;;;;;;;;;;4993757;28;20050;-79
2022/11/13 14:02:18;;;;;;;10.77;9.52;;;;;;;;;;5009478;28;20428;-79
2022/11/13 14:04:44;;;;;;;;;;;;;;;;;;5003554;28;20056;-79
2022/11/13 14:07:37;;;;;;;12.70;8.95;;;;;;;;;;5001890;28;19971;-79
2022/11/13 14:10:04;;;;;;;10.88;9.75;;;;;;;;;;5012029;28;20056;-79
2022/11/13 14:12:30;;;;;;;11.60;9.95;;;;;;;;;;5029941;28;20041;-79
2022/11/13 14:14:57;;;;;;;11.35;10.02;;;;;;;;;;5032603;28;20049;-79
2022/11/13 14:17:24;;;;;;;12.27;9.73;;;;;;;;;;5017639;28;20041;-79
2022/11/13 14:19:54;;;;;;;11.77;9.63;;;;;;;;;;5034119;28;20088;-79
2022/11/13 14:22:20;;;;;;;13.02;10.10;;;;;;;;;;5019593;28;20107;-80
2022/11/13 14:24:58;;;;;;;12.00;10.07;;;;;;;;;;4992173;28;21845;-80
2022/11/13 14:27:25;;;;;;;12.68;10.13;;;;;;;;;;5019250;28;20049;-80
2022/11/13 14:29:56;;;;;;;14.05;10.23;;;;;;;;;;5019098;28;20041;-80
2022/11/13 14:32:24;;;;;;;12.40;10.40;;;;;;;;;;5036882;28;20503;-80